Time;durP1;ratioP1;P1;durP2;ratioP2;P2;SDS_P1;SDS_P2;PMS_P1;PMS_P2;Temp;Humidity;BMP_temperature;BMP_pressure;BME280_temperature;BME280_humidity;BME280_pressure;Samples;Min_cycle;Max_cycle;Signal;HPM_P1;HPM_P2
2023/10/04 00:00:15;;;;;;;22.40;3.83;;;;;;;20.94;67.71;101536.34;5068859;28;20425;-60
2023/10/04 00:02:45;;;;;;;24.60;3.13;;;;;;;20.93;67.91;101534.66;5065058;28;20465;-60
2023/10/04 00:05:15;;;;;;;19.67;3.20;;;;;;;20.94;68.02;101535.50;5062025;28;20825;-59
2023/10/04 00:07:42;;;;;;;15.83;3.17;;;;;;;20.92;66.11;101535.84;5060673;28;20888;-59
2023/10/04 00:10:07;;;;;;;12.43;3.40;;;;;;;20.91;66.06;101537.06;5060828;28;20807;-59
2023/10/04 00:12:33;;;;;;;18.40;3.53;;;;;;;20.92;66.55;101532.19;5055017;28;20520;-59
2023/10/04 00:14:58;;;;;;;12.50;3.63;;;;;;;20.92;66.91;101533.00;5058022;28;20211;-59
2023/10/04 00:17:24;;;;;;;10.43;2.77;;;;;;;20.93;66.69;101536.72;5053306;28;20184;-59
2023/10/04 00:19:49;;;;;;;10.33;2.40;;;;;;;20.94;66.76;101546.97;5059690;28;20299;-59
2023/10/04 00:22:18;;;;;;;18.20;3.20;;;;;;;20.93;66.42;101539.56;5054846;28;20202;-59
2023/10/04 00:24:44;;;;;;;17.10;2.93;;;;;;;20.93;66.77;101548.19;5057412;28;20254;-59
2023/10/04 00:27:10;;;;;;;9.87;2.33;;;;;;;20.92;66.51;101544.47;5056485;28;20805;-59
2023/10/04 00:29:36;;;;;;;11.53;2.77;;;;;;;20.92;67.11;101538.72;5056948;28;20429;-59
2023/10/04 00:32:03;;;;;;;20.23;3.70;;;;;;;20.92;67.21;101537.91;5057517;28;20202;-59
2023/10/04 00:34:29;;;;;;;18.80;3.20;;;;;;;20.92;67.17;101537.91;5060279;28;20213;-58
2023/10/04 00:36:56;;;;;;;9.30;2.80;;;;;;;20.91;67.43;101537.06;5063791;28;20413;-59
2023/10/04 00:39:21;;;;;;;10.17;2.93;;;;;;;20.90;67.21;101535.41;5065655;28;20191;-58
2023/10/04 00:41:50;;;;;;;10.40;3.10;;;;;;;20.88;67.41;101526.28;5055364;28;20457;-59
2023/10/04 00:44:16;;;;;;;12.23;4.13;;;;;;;20.88;67.43;101528.31;5049691;28;20187;-59
2023/10/04 00:46:45;;;;;;;9.70;3.83;;;;;;;20.87;67.69;101527.47;5047626;28;20426;-59
2023/10/04 00:49:11;;;;;;;8.57;2.07;;;;;;;20.86;67.18;101528.69;5061059;28;20184;-59
2023/10/04 00:51:36;;;;;;;10.43;2.67;;;;;;;20.87;67.71;101523.78;5035411;28;20442;-58
2023/10/04 00:54:07;;;;;;;10.77;2.70;;;;;;;20.86;67.60;101522.09;5062141;28;20440;-59
2023/10/04 00:56:36;;;;;;;11.00;2.50;;;;;;;20.85;68.14;101518.41;5056754;28;20195;-59
2023/10/04 00:59:05;;;;;;;12.17;2.47;;;;;;;20.87;67.96;101526.66;5046013;28;20904;-59
2023/10/04 01:01:31;;;;;;;9.73;3.30;;;;;;;20.86;67.78;101522.09;5047705;28;20425;-59
2023/10/04 01:03:57;;;;;;;6.03;3.13;;;;;;;20.86;68.19;101524.97;5049162;28;20556;-59
2023/10/04 01:06:22;;;;;;;9.53;2.40;;;;;;;20.85;68.21;101531.91;5051433;28;20544;-59
2023/10/04 01:08:48;;;;;;;7.23;2.70;;;;;;;20.84;68.21;101524.53;5061907;28;20571;-59
2023/10/04 01:11:13;;;;;;;7.97;2.23;;;;;;;20.84;68.15;101525.38;5064967;28;20546;-59
2023/10/04 01:13:40;;;;;;;8.13;2.60;;;;;;;20.85;68.42;101523.31;5057595;28;20207;-59
2023/10/04 01:16:09;;;;;;;7.70;2.87;;;;;;;20.83;68.05;101520.81;5048884;28;20199;-59
2023/10/04 01:18:35;;;;;;;9.00;2.33;;;;;;;20.84;68.07;101522.50;5052919;28;20474;-59
2023/10/04 01:21:00;;;;;;;4.70;2.00;;;;;;;20.81;68.25;101526.09;5061210;28;20515;-59
2023/10/04 01:23:27;;;;;;;8.00;2.20;;;;;;;20.83;68.05;101529.41;5068495;28;20457;-59
2023/10/04 01:25:53;;;;;;;6.07;2.40;;;;;;;20.83;68.40;101535.16;5066928;28;20210;-59
2023/10/04 01:28:27;;;;;;;8.73;2.00;;;;;;;20.82;68.24;101532.66;5051972;28;20906;-59
2023/10/04 01:30:53;;;;;;;5.17;2.47;;;;;;;20.81;68.69;101536.72;5051720;28;20164;-59
2023/10/04 01:33:18;;;;;;;5.03;1.80;;;;;;;20.81;68.50;101531.81;5050715;28;20529;-59
2023/10/04 01:35:45;;;;;;;6.93;2.13;;;;;;;20.81;68.05;101526.09;5054585;28;20492;-59
2023/10/04 01:38:11;;;;;;;7.13;2.90;;;;;;;20.80;68.22;101524.44;5052326;28;20541;-59
2023/10/04 01:40:38;;;;;;;6.07;2.43;;;;;;;20.79;68.81;101519.88;5052912;28;20447;-59
2023/10/04 01:43:14;;;;;;;5.33;2.03;;;;;;;20.79;68.77;101522.75;5055881;28;20203;-59
2023/10/04 01:45:43;;;;;;;7.27;2.57;;;;;;;20.79;68.79;101519.88;5059843;28;20996;-59
2023/10/04 01:48:08;;;;;;;3.63;2.00;;;;;;;20.78;68.39;101521.06;5052071;28;20442;-59
2023/10/04 01:50:34;;;;;;;7.63;2.47;;;;;;;20.78;68.30;101515.31;5051897;28;20422;-59
2023/10/04 01:53:01;;;;;;;6.30;2.27;;;;;;;20.79;68.83;101516.16;5058638;28;20206;-59
2023/10/04 01:55:26;;;;;;;4.97;2.07;;;;;;;20.79;68.56;101519.03;5063022;28;20190;-59
2023/10/04 01:57:52;;;;;;;10.70;2.40;;;;;;;20.79;68.84;101519.03;5070004;28;20424;-59
2023/10/04 02:00:19;;;;;;;5.20;1.83;;;;;;;20.77;68.54;101513.66;5068098;28;20168;-59
2023/10/04 02:02:44;;;;;;;5.40;2.27;;;;;;;20.78;68.49;101520.25;5064218;28;20213;-59
2023/10/04 02:05:11;;;;;;;7.03;2.53;;;;;;;20.77;69.09;101527.19;5050474;28;20426;-60
2023/10/04 02:07:40;;;;;;;7.90;2.63;;;;;;;20.77;68.79;101527.19;5048770;28;20214;-59
2023/10/04 02:10:09;;;;;;;8.03;2.20;;;;;;;20.77;68.74;101528.00;5065131;28;20443;-59
2023/10/04 02:12:35;;;;;;;7.10;2.63;;;;;;;20.76;68.57;101529.22;5054575;28;20535;-59
2023/10/04 02:15:00;;;;;;;7.03;2.20;;;;;;;20.77;69.17;101535.81;5051643;28;20429;-59
2023/10/04 02:17:26;;;;;;;4.47;2.10;;;;;;;20.77;68.89;101535.81;5051509;28;20427;-59
2023/10/04 02:19:53;;;;;;;8.57;2.53;;;;;;;20.76;68.87;101539.84;5052894;28;20234;-59
2023/10/04 02:22:19;;;;;;;8.93;2.10;;;;;;;20.76;68.65;101540.69;5070434;28;20199;-59
2023/10/04 02:24:45;;;;;;;4.47;1.80;;;;;;;20.76;68.61;101532.09;5071681;28;20972;-59
2023/10/04 02:27:11;;;;;;;7.60;2.23;;;;;;;20.75;68.78;101532.44;5060161;28;20448;-60
2023/10/04 02:29:39;;;;;;;6.03;2.20;;;;;;;20.76;69.16;101540.69;5053774;28;20219;-59
2023/10/04 02:32:08;;;;;;;4.27;2.07;;;;;;;20.76;69.08;101537.84;5051376;28;20401;-59
2023/10/04 02:34:35;;;;;;;4.73;1.80;;;;;;;20.75;68.93;101530.44;5051278;28;20430;-59
2023/10/04 02:37:01;;;;;;;7.83;2.17;;;;;;;20.75;68.82;101538.19;5050525;28;20418;-58
2023/10/04 02:39:27;;;;;;;7.00;2.00;;;;;;;20.74;68.69;101545.97;5057211;28;20473;-59
2023/10/04 02:41:53;;;;;;;6.60;2.00;;;;;;;20.74;68.90;101551.72;5070386;28;20429;-59
2023/10/04 02:44:19;;;;;;;5.17;1.77;;;;;;;20.74;68.71;101543.13;5071078;28;21006;-58
2023/10/04 02:46:45;;;;;;;8.87;1.80;;;;;;;20.74;68.69;101548.84;5050992;28;20180;-59
2023/10/04 02:49:10;;;;;;;4.30;1.77;;;;;;;20.75;68.64;101552.53;5063948;28;20486;-59
2023/10/04 02:51:36;;;;;;;5.17;1.67;;;;;;;20.73;69.04;101546.34;5069828;28;20174;-59
2023/10/04 02:54:04;;;;;;;5.17;2.13;;;;;;;20.73;68.95;101547.16;5069271;28;20178;-59
2023/10/04 02:56:30;;;;;;;7.10;2.23;;;;;;;20.72;68.98;101548.38;5050041;28;20874;-59
2023/10/04 02:58:55;;;;;;;9.07;1.93;;;;;;;20.72;68.81;101548.38;5052108;28;20446;-59
2023/10/04 03:01:22;;;;;;;3.97;1.90;;;;;;;20.72;68.73;101548.38;5058717;28;20180;-59
2023/10/04 03:03:51;;;;;;;8.10;2.70;;;;;;;20.71;69.03;101555.31;5059513;28;20199;-60
2023/10/04 03:06:16;;;;;;;3.20;1.67;;;;;;;20.73;68.49;101566.44;5055390;28;20511;-59
2023/10/04 03:08:42;;;;;;;6.63;2.13;;;;;;;20.71;69.06;101558.19;5057040;28;20437;-59
2023/10/04 03:11:07;;;;;;;5.00;1.90;;;;;;;20.71;68.80;101549.56;5063758;28;20194;-59
2023/10/04 03:13:34;;;;;;;4.67;1.90;;;;;;;20.72;68.94;101544.69;5062184;28;20318;-59
2023/10/04 03:16:01;;;;;;;6.23;2.10;;;;;;;20.71;68.91;101549.56;5065675;28;20195;-59
2023/10/04 03:18:26;;;;;;;5.63;1.80;;;;;;;20.71;69.23;101549.56;5062281;28;20905;-59
2023/10/04 03:23:30;;;;;;;4.63;2.23;;;;;;;20.71;69.12;101561.06;5049696;28;20289;-59
2023/10/04 03:25:57;;;;;;;4.17;1.57;;;;;;;20.71;68.60;101569.66;5052805;28;20467;-59
2023/10/04 03:28:26;;;;;;;3.87;1.80;;;;;;;20.70;68.57;101568.00;5062792;28;20511;-59
2023/10/04 03:30:53;;;;;;;5.63;2.23;;;;;;;20.70;68.86;101564.28;5069252;28;20946;-59
2023/10/04 03:33:18;;;;;;;3.73;1.33;;;;;;;20.69;68.92;101568.34;5068216;28;20441;-59
2023/10/04 03:35:44;;;;;;;2.77;1.53;;;;;;;20.69;68.72;101574.94;5060929;28;20844;-59
2023/10/04 03:38:11;;;;;;;3.90;1.67;;;;;;;20.69;68.49;101574.09;5064168;28;20270;-59
2023/10/04 03:40:38;;;;;;;4.53;1.80;;;;;;;20.68;68.83;101570.38;5051498;28;20747;-59
2023/10/04 03:43:07;;;;;;;7.93;1.77;;;;;;;20.69;68.95;101582.72;5051940;28;20523;-59
2023/10/04 03:45:33;;;;;;;8.97;1.93;;;;;;;20.68;68.96;101581.88;5048358;28;20454;-59
2023/10/04 03:47:59;;;;;;;4.30;1.67;;;;;;;20.69;68.68;101574.09;5047509;28;20484;-59
2023/10/04 03:50:25;;;;;;;4.90;2.10;;;;;;;20.67;69.00;101570.78;5048802;28;20635;-59
2023/10/04 03:52:57;;;;;;;6.70;2.20;;;;;;;20.68;68.87;101569.56;5056447;28;20182;-59
2023/10/04 03:55:22;;;;;;;4.27;1.63;;;;;;;20.67;69.13;101568.72;5051930;28;20454;-59
2023/10/04 03:57:50;;;;;;;4.17;1.73;;;;;;;20.66;68.85;101569.94;5051278;28;20465;-59
2023/10/04 04:00:17;;;;;;;3.20;1.43;;;;;;;20.67;69.05;101576.50;5049763;28;20229;-59
2023/10/04 04:02:43;;;;;;;4.47;1.83;;;;;;;20.67;68.82;101571.59;5049650;28;20977;-59
2023/10/04 04:05:09;;;;;;;2.77;1.53;;;;;;;20.66;68.91;101569.94;5049356;28;21133;-59
2023/10/04 04:07:35;;;;;;;4.07;1.87;;;;;;;20.66;68.90;101569.06;5049032;28;20488;-59
2023/10/04 04:10:05;;;;;;;4.20;1.90;;;;;;;20.66;68.61;101572.78;5052567;28;20414;-59
2023/10/04 04:12:30;;;;;;;3.30;1.90;;;;;;;20.66;68.61;101574.81;5067507;28;20544;-59
2023/10/04 04:14:56;;;;;;;3.20;1.63;;;;;;;20.66;68.90;101572.78;5065940;28;20564;-59
2023/10/04 04:17:22;;;;;;;4.37;1.87;;;;;;;20.65;68.61;101576.88;5048606;28;20176;-59
2023/10/04 04:19:49;;;;;;;3.07;1.70;;;;;;;20.65;68.55;101574.00;5058217;28;21078;-59
2023/10/04 04:22:23;;;;;;;5.67;1.83;;;;;;;20.65;68.92;101568.25;5065034;28;20474;-59
2023/10/04 04:24:52;;;;;;;4.50;1.87;;;;;;;20.65;69.05;101564.53;5060867;28;20428;-59
2023/10/04 04:27:22;;;;;;;3.87;1.50;;;;;;;20.64;68.87;101565.75;5056925;28;20426;-59
2023/10/04 04:29:48;;;;;;;3.63;1.57;;;;;;;20.64;69.12;101565.75;5057742;28;20913;-59
2023/10/04 04:32:15;;;;;;;3.17;1.43;;;;;;;20.65;68.75;101561.66;5056208;28;20480;-59
2023/10/04 04:34:42;;;;;;;3.97;2.03;;;;;;;20.64;68.76;101560.00;5067843;28;20884;-59
2023/10/04 04:37:08;;;;;;;4.03;1.63;;;;;;;20.64;68.69;101557.13;5066320;28;20483;-59
2023/10/04 04:39:34;;;;;;;3.90;1.80;;;;;;;20.63;68.85;101561.22;5063534;28;20476;-59
2023/10/04 04:42:00;;;;;;;3.33;1.60;;;;;;;20.62;68.89;101560.38;5068010;28;20421;-59
2023/10/04 04:44:33;;;;;;;5.90;1.93;;;;;;;20.62;69.06;101566.09;5067300;28;20661;-60
2023/10/04 04:46:59;;;;;;;3.80;2.00;;;;;;;20.62;69.06;101560.38;5057490;28;20438;-59
2023/10/04 04:49:24;;;;;;;5.30;1.70;;;;;;;20.63;69.17;101575.56;5044668;28;21145;-59
2023/10/04 04:51:50;;;;;;;3.77;2.00;;;;;;;20.62;68.60;101563.25;5048782;28;20186;-59
2023/10/04 04:54:18;;;;;;;4.20;1.50;;;;;;;20.61;68.80;101564.44;5060227;28;20174;-59
2023/10/04 04:56:43;;;;;;;4.53;1.60;;;;;;;20.62;68.98;101562.41;5047809;28;20176;-59
2023/10/04 04:59:09;;;;;;;3.93;1.80;;;;;;;20.61;68.67;101570.19;5050788;28;20432;-59
2023/10/04 05:01:35;;;;;;;3.23;1.70;;;;;;;20.61;68.87;101584.53;5052897;28;20257;-59
2023/10/04 05:04:03;;;;;;;4.67;1.30;;;;;;;20.60;68.99;101584.88;5066525;28;20206;-59
2023/10/04 05:06:30;;;;;;;4.57;2.30;;;;;;;20.60;68.90;101577.13;5058077;28;20433;-59
2023/10/04 05:08:56;;;;;;;3.83;1.60;;;;;;;20.61;69.15;101572.22;5053087;28;20491;-59
2023/10/04 05:11:24;;;;;;;3.67;1.70;;;;;;;20.59;69.08;101578.34;5067351;28;20441;-59
2023/10/04 05:13:51;;;;;;;5.03;2.03;;;;;;;20.59;68.86;101572.59;5072812;28;20469;-58
2023/10/04 05:16:16;;;;;;;3.00;1.53;;;;;;;20.60;68.89;101571.38;5065774;28;20513;-58
2023/10/04 05:18:43;;;;;;;2.57;1.10;;;;;;;20.60;69.04;101577.13;5055326;28;20484;-59
2023/10/04 05:21:10;;;;;;;4.63;1.70;;;;;;;20.58;69.04;101570.91;5069826;28;20622;-58
2023/10/04 05:23:36;;;;;;;5.03;1.70;;;;;;;20.59;69.12;101566.84;5060517;28;21377;-58
2023/10/04 05:26:01;;;;;;;3.47;1.77;;;;;;;20.59;68.90;101574.63;5050953;28;20418;-59
2023/10/04 05:28:30;;;;;;;4.00;1.70;;;;;;;20.58;68.74;101573.75;5050959;28;20183;-59
2023/10/04 05:30:56;;;;;;;4.47;1.80;;;;;;;20.57;68.83;101572.09;5065108;28;20207;-59
2023/10/04 05:33:22;;;;;;;4.73;1.87;;;;;;;20.58;69.46;101572.94;5062378;28;20959;-58
2023/10/04 05:35:52;;;;;;;3.27;1.60;;;;;;;20.58;69.14;101561.47;5047098;28;20673;-59
2023/10/04 05:38:18;;;;;;;3.30;1.60;;;;;;;20.57;68.73;101566.38;5060015;28;20428;-59
2023/10/04 05:40:44;;;;;;;3.37;1.53;;;;;;;20.56;68.90;101576.19;5070237;28;20429;-59
2023/10/04 05:43:10;;;;;;;4.40;2.00;;;;;;;20.57;68.98;101572.09;5055056;28;20495;-58
2023/10/04 05:45:36;;;;;;;4.47;1.73;;;;;;;20.57;68.73;101577.03;5049782;28;20426;-59
2023/10/04 05:48:05;;;;;;;3.57;1.50;;;;;;;20.57;68.72;101577.03;5035651;28;20975;-59
2023/10/04 05:50:34;;;;;;;2.90;1.53;;;;;;;20.56;69.00;101575.34;5051610;28;20505;-59
2023/10/04 05:53:04;;;;;;;3.60;1.60;;;;;;;20.56;68.68;101579.03;5059625;28;20425;-59
2023/10/04 05:55:29;;;;;;;3.40;1.80;;;;;;;20.56;68.84;101590.53;5056198;28;20465;-59
2023/10/04 05:57:55;;;;;;;3.13;1.80;;;;;;;20.55;68.69;101586.00;5053521;28;20445;-59
2023/10/04 06:00:40;;;;;;;3.47;1.80;;;;;;;20.56;69.13;101587.66;5050993;28;20979;-59
2023/10/04 06:03:10;;;;;;;3.20;1.47;;;;;;;20.55;69.21;101590.88;5051050;28;20191;-59
2023/10/04 06:05:37;;;;;;;3.70;1.80;;;;;;;20.55;68.69;101586.00;5051040;28;20410;-58
2023/10/04 06:08:10;;;;;;;2.77;1.53;;;;;;;20.56;68.90;101601.16;5060375;28;20466;-58
2023/10/04 06:10:36;;;;;;;4.20;1.80;;;;;;;20.55;69.06;101590.88;5065564;28;21230;-59
2023/10/04 06:13:02;;;;;;;2.53;1.33;;;;;;;20.55;69.08;101591.72;5060827;28;20421;-59
2023/10/04 06:15:28;;;;;;;3.37;1.77;;;;;;;20.54;69.31;101586.34;5071406;28;20191;-59
2023/10/04 06:17:53;;;;;;;2.43;1.20;;;;;;;20.54;69.13;101589.22;5070950;28;20479;-59
2023/10/04 06:20:24;;;;;;;2.53;1.30;;;;;;;20.55;68.88;101594.59;5050059;28;20175;-58
2023/10/04 06:22:51;;;;;;;3.60;1.60;;;;;;;20.65;69.37;101599.81;5052844;28;20213;-58
2023/10/04 06:25:17;;;;;;;5.57;2.40;;;;;;;20.94;69.71;101605.25;5058427;28;20548;-59
2023/10/04 06:27:42;;;;;;;12.50;4.30;;;;;;;21.38;70.42;101608.94;5048157;28;20495;-59
2023/10/04 06:30:08;;;;;;;10.23;3.73;;;;;;;21.39;70.64;101611.47;5048865;28;20434;-59
2023/10/04 06:32:37;;;;;;;6.10;3.20;;;;;;;21.12;69.63;101611.50;5061574;28;20179;-58
2023/10/04 06:35:03;;;;;;;5.80;2.43;;;;;;;20.98;68.66;101625.44;5067331;28;20175;-59
2023/10/04 06:37:29;;;;;;;4.93;2.43;;;;;;;20.82;67.53;101625.34;5058511;28;20463;-59
2023/10/04 06:39:55;;;;;;;4.20;2.20;;;;;;;20.72;65.36;101620.13;5051003;28;20445;-58
2023/10/04 06:42:20;;;;;;;4.70;2.47;;;;;;;20.72;65.12;101622.16;5053358;28;20209;-59
2023/10/04 06:44:47;;;;;;;7.77;2.80;;;;;;;20.59;63.17;101626.25;5058866;28;20232;-58
2023/10/04 06:47:15;;;;;;;9.33;2.67;;;;;;;20.55;61.32;101631.06;5050688;28;20583;-59
2023/10/04 06:49:40;;;;;;;7.53;2.83;;;;;;;20.45;59.27;101637.28;5060536;28;20915;-58
2023/10/04 06:52:07;;;;;;;8.83;2.40;;;;;;;20.38;60.65;101629.31;5069516;28;20425;-59
2023/10/04 06:54:33;;;;;;;16.10;2.97;;;;;;;20.35;59.35;101627.16;5055785;28;20229;-59
2023/10/04 06:56:59;;;;;;;5.03;2.57;;;;;;;20.34;59.03;101631.22;5067167;28;20599;-58
2023/10/04 06:59:24;;;;;;;8.13;2.67;;;;;;;20.34;60.02;101636.13;5049113;28;21009;-58
2023/10/04 07:01:51;;;;;;;6.50;2.50;;;;;;;20.34;59.63;101627.53;5064125;28;20256;-59
2023/10/04 07:04:16;;;;;;;8.17;3.27;;;;;;;20.32;59.83;101625.00;5068322;28;20805;-59
2023/10/04 07:06:42;;;;;;;7.30;3.20;;;;;;;20.32;58.88;101645.09;5062247;28;20543;-59
2023/10/04 07:09:07;;;;;;;13.73;3.17;;;;;;;20.36;60.61;101640.31;5051656;28;20274;-58
2023/10/04 07:11:33;;;;;;;6.10;2.93;;;;;;;20.38;59.77;101645.69;5056497;28;20196;-59
2023/10/04 07:13:58;;;;;;;9.63;3.00;;;;;;;20.33;59.51;101646.78;5066445;28;20222;-59
2023/10/04 07:16:24;;;;;;;7.13;2.80;;;;;;;20.34;60.88;101644.72;5053426;28;20294;-59
2023/10/04 07:18:49;;;;;;;9.77;2.97;;;;;;;20.34;60.07;101651.31;5063746;28;20230;-59
2023/10/04 07:21:15;;;;;;;8.17;2.67;;;;;;;20.33;60.84;101646.78;5064600;28;20185;-58
2023/10/04 07:23:40;;;;;;;6.70;2.90;;;;;;;20.34;61.03;101653.34;5067545;28;20290;-58
2023/10/04 07:26:09;;;;;;;5.80;2.23;;;;;;;20.33;61.86;101646.78;5065749;28;20175;-58
2023/10/04 07:28:39;;;;;;;13.73;2.90;;;;;;;20.27;61.03;101647.38;5055926;28;20661;-59
2023/10/04 07:31:05;;;;;;;7.63;2.60;;;;;;;20.15;59.48;101655.97;5060087;28;20525;-59
2023/10/04 07:33:30;;;;;;;5.30;2.40;;;;;;;20.06;60.34;101661.81;5068944;28;20417;-58
2023/10/04 07:35:56;;;;;;;6.20;2.03;;;;;;;20.00;61.22;101666.09;5069410;28;20179;-58
2023/10/04 07:38:21;;;;;;;6.30;2.93;;;;;;;19.93;61.47;101671.63;5059504;28;20190;-59
2023/10/04 07:40:47;;;;;;;6.60;2.40;;;;;;;19.95;61.49;101666.34;5052336;28;20266;-58
2023/10/04 07:43:13;;;;;;;5.97;2.27;;;;;;;19.90;61.68;101675.19;5050822;28;20582;-58
2023/10/04 07:45:39;;;;;;;6.80;2.77;;;;;;;19.88;61.98;101674.72;5067839;28;20310;-57
2023/10/04 07:48:06;;;;;;;5.43;2.40;;;;;;;19.88;62.01;101665.25;5069236;28;20429;-58
2023/10/04 07:50:32;;;;;;;7.80;2.60;;;;;;;19.92;62.19;101678.50;5053957;28;20191;-57
2023/10/04 07:53:00;;;;;;;7.00;2.60;;;;;;;19.96;62.51;101673.75;5052929;28;20437;-57
2023/10/04 07:55:26;;;;;;;5.73;2.37;;;;;;;20.02;63.31;101668.63;5055791;28;20436;-58
2023/10/04 07:58:02;;;;;;;5.20;2.60;;;;;;;20.12;63.18;101663.25;5055453;28;20437;-57
2023/10/04 08:00:29;;;;;;;5.23;2.47;;;;;;;20.16;63.41;101669.13;5067770;28;20273;-58
2023/10/04 08:02:54;;;;;;;7.90;2.13;;;;;;;20.20;63.33;101668.06;5051107;28;20454;-57
2023/10/04 08:05:20;;;;;;;5.67;2.70;;;;;;;20.23;63.82;101664.47;5049613;28;20430;-57
2023/10/04 08:07:53;;;;;;;6.27;2.47;;;;;;;20.24;63.60;101665.28;5049790;28;20172;-58
2023/10/04 08:10:23;;;;;;;11.17;3.80;;;;;;;20.26;63.91;101662.91;5058532;28;20701;-58
2023/10/04 08:12:51;;;;;;;6.90;2.10;;;;;;;20.27;64.13;101665.41;5064526;28;20484;-58
2023/10/04 08:15:19;;;;;;;6.37;2.20;;;;;;;20.31;63.88;101671.28;5049785;28;20460;-58
2023/10/04 08:17:48;;;;;;;11.07;2.30;;;;;;;20.31;64.06;101671.28;5047707;28;20422;-58
2023/10/04 08:20:13;;;;;;;6.40;2.33;;;;;;;20.31;64.20;101672.09;5051822;28;20474;-58
2023/10/04 08:22:40;;;;;;;10.80;2.47;;;;;;;20.31;64.34;101669.22;5046942;28;20569;-58
2023/10/04 08:25:08;;;;;;;5.40;1.83;;;;;;;20.31;64.29;101669.22;5050699;28;20191;-58
2023/10/04 08:27:34;;;;;;;4.63;1.90;;;;;;;20.32;64.37;101667.22;5047601;28;20417;-58
2023/10/04 08:30:03;;;;;;;9.30;2.43;;;;;;;20.33;64.51;101668.88;5063894;28;20429;-58
2023/10/04 08:32:29;;;;;;;5.33;2.00;;;;;;;20.35;64.72;101672.22;5048890;28;20210;-58
2023/10/04 08:34:55;;;;;;;6.10;2.57;;;;;;;20.33;64.74;101669.72;5046988;28;20426;-58
2023/10/04 08:37:20;;;;;;;8.03;2.13;;;;;;;20.35;64.74;101666.47;5049692;28;20183;-58
2023/10/04 08:39:46;;;;;;;9.43;1.90;;;;;;;20.34;65.18;101661.94;5048837;28;20191;-58
2023/10/04 08:42:11;;;;;;;6.73;2.40;;;;;;;20.35;64.91;101663.59;5050485;28;20179;-58
2023/10/04 08:44:36;;;;;;;7.00;1.93;;;;;;;20.34;65.17;101657.06;5057051;28;20561;-58
2023/10/04 08:47:04;;;;;;;3.60;2.07;;;;;;;20.35;64.78;101661.59;5062121;28;20187;-57
2023/10/04 08:49:31;;;;;;;4.07;1.93;;;;;;;20.34;65.28;101659.06;5053853;28;20187;-57
2023/10/04 08:52:02;;;;;;;9.67;2.50;;;;;;;20.35;65.06;101661.59;5059925;28;21176;-58
2023/10/04 08:54:28;;;;;;;5.63;1.80;;;;;;;20.35;65.19;101652.97;5064371;28;20528;-58
2023/10/04 08:57:13;;;;;;;5.07;1.87;;;;;;;20.35;64.99;101650.13;5063705;28;21176;-58
2023/10/04 08:59:39;;;;;;;5.87;2.40;;;;;;;20.35;65.60;101655.00;5048597;28;20862;-58
2023/10/04 09:02:07;;;;;;;3.90;2.20;;;;;;;20.34;65.06;101657.06;5048460;28;20468;-58
2023/10/04 09:04:32;;;;;;;3.60;1.73;;;;;;;20.34;65.43;101662.78;5054217;28;20678;-58
2023/10/04 09:06:58;;;;;;;7.57;2.80;;;;;;;20.34;65.27;101653.34;5048396;28;20469;-58
2023/10/04 09:09:23;;;;;;;6.20;3.00;;;;;;;20.34;65.22;101659.91;5048809;28;20186;-58
2023/10/04 09:11:49;;;;;;;4.70;2.50;;;;;;;20.34;65.06;101654.19;5042854;28;20199;-58
2023/10/04 09:14:15;;;;;;;5.97;2.10;;;;;;;20.34;65.01;101648.44;5055204;28;20203;-57
2023/10/04 09:16:40;;;;;;;4.57;1.80;;;;;;;20.33;65.37;101643.91;5048583;28;20184;-58
2023/10/04 09:19:17;;;;;;;7.80;2.20;;;;;;;20.34;65.18;101648.44;5055255;28;20239;-58
2023/10/04 09:21:43;;;;;;;3.87;1.83;;;;;;;20.33;65.62;101646.78;5057217;28;20190;-58
2023/10/04 09:24:12;;;;;;;4.33;2.47;;;;;;;20.34;65.21;101648.44;5062600;28;20809;-59
2023/10/04 09:26:58;;;;;;;6.23;2.30;;;;;;;20.35;65.34;101640.66;5047167;28;20558;-58
2023/10/04 09:29:30;;;;;;;4.33;2.20;;;;;;;20.34;65.58;101636.13;5049154;28;20544;-58
2023/10/04 09:31:56;;;;;;;4.30;2.10;;;;;;;20.35;65.19;101634.91;5047141;28;20430;-58
2023/10/04 09:34:24;;;;;;;6.40;2.37;;;;;;;20.36;65.20;101645.22;5048144;28;20418;-58
2023/10/04 09:36:52;;;;;;;6.63;2.30;;;;;;;20.34;65.37;101639.00;5050268;28;20201;-58
2023/10/04 09:39:23;;;;;;;4.70;2.57;;;;;;;20.34;65.24;101641.84;5049729;28;20421;-58
2023/10/04 09:41:49;;;;;;;4.70;2.37;;;;;;;20.35;65.59;101640.66;5046998;28;20442;-58
2023/10/04 09:44:29;;;;;;;4.90;2.00;;;;;;;20.35;65.45;101637.78;5054748;28;20489;-58
2023/10/04 09:47:00;;;;;;;4.63;2.27;;;;;;;20.36;65.59;101639.47;5068009;28;20691;-57
2023/10/04 09:49:33;;;;;;;4.47;2.00;;;;;;;20.34;65.12;101636.97;5063117;28;20469;-59
2023/10/04 09:52:02;;;;;;;5.10;1.87;;;;;;;20.35;65.50;101632.91;5052479;28;20456;-58
2023/10/04 09:54:28;;;;;;;3.90;2.13;;;;;;;20.33;64.63;101634.47;5065705;28;20429;-58
2023/10/04 09:56:54;;;;;;;4.40;2.00;;;;;;;20.33;65.71;101637.31;5059321;28;20479;-58
2023/10/04 09:59:20;;;;;;;5.30;2.00;;;;;;;20.32;65.39;101639.34;5063452;28;20183;-58
2023/10/04 10:01:56;;;;;;;5.27;2.13;;;;;;;20.34;65.26;101636.97;5051551;28;20916;-58
2023/10/04 10:04:26;;;;;;;4.57;2.13;;;;;;;20.33;65.24;101640.19;5070281;28;20465;-58
2023/10/04 10:07:23;;;;;;;5.20;2.13;;;;;;;20.32;65.32;101624.19;5069994;28;20423;-58
2023/10/04 10:09:55;;;;;;;4.87;1.73;;;;;;;20.33;65.20;101634.47;5051204;28;20475;-58
2023/10/04 10:12:21;;;;;;;4.27;1.60;;;;;;;20.32;65.35;101627.88;5053648;28;20412;-58
2023/10/04 10:14:48;;;;;;;5.00;2.43;;;;;;;20.33;65.04;101632.44;5063690;28;20470;-58
2023/10/04 10:17:13;;;;;;;4.50;1.87;;;;;;;20.32;65.35;101629.94;5053280;28;20458;-58
2023/10/04 10:19:38;;;;;;;7.47;2.00;;;;;;;20.35;64.71;101629.19;5050350;28;20497;-59
2023/10/04 10:22:06;;;;;;;4.90;2.00;;;;;;;20.35;65.00;101630.03;5052367;28;20179;-59
2023/10/04 10:24:33;;;;;;;5.70;2.20;;;;;;;20.34;64.79;101631.22;5050193;28;20647;-58
2023/10/04 10:27:02;;;;;;;5.30;1.67;;;;;;;20.36;65.03;101628.81;5062339;28;20763;-58
2023/10/04 10:29:30;;;;;;;4.23;1.97;;;;;;;20.36;64.50;101628.81;5065128;28;20445;-58
2023/10/04 10:31:56;;;;;;;3.63;2.00;;;;;;;20.35;64.50;101623.44;5051965;28;20419;-59
2023/10/04 10:34:22;;;;;;;4.80;2.20;;;;;;;20.34;65.03;101625.50;5051001;28;20419;-58
2023/10/04 10:37:29;;;;;;;5.40;2.33;;;;;;;20.33;64.99;101622.97;5051422;28;20187;-58
2023/10/04 10:40:04;;;;;;;4.03;1.70;;;;;;;20.34;64.74;101624.66;5059278;28;20425;-58
2023/10/04 10:42:30;;;;;;;9.37;2.20;;;;;;;20.31;64.92;101614.72;5050763;28;20476;-58
2023/10/04 10:45:25;;;;;;;4.30;1.77;;;;;;;20.31;65.12;101619.66;5039300;28;20414;-58
2023/10/04 10:47:51;;;;;;;7.30;2.40;;;;;;;20.33;64.89;101617.25;5050495;28;20521;-58
2023/10/04 10:50:32;;;;;;;5.93;1.93;;;;;;;20.32;64.67;101622.13;5042545;28;20449;-58
2023/10/04 10:53:08;;;;;;;5.63;1.80;;;;;;;20.33;64.84;101623.84;5053760;28;20279;-58
2023/10/04 10:55:34;;;;;;;4.50;1.80;;;;;;;20.33;64.59;101620.13;5060261;28;20460;-58
2023/10/04 10:58:00;;;;;;;5.83;2.13;;;;;;;20.34;64.38;101622.63;5060054;28;21204;-58
2023/10/04 11:00:31;;;;;;;7.17;2.27;;;;;;;20.33;64.58;101620.13;5050793;28;20183;-58
2023/10/04 11:02:57;;;;;;;4.27;1.77;;;;;;;20.32;64.43;101619.25;5055995;28;20254;-58
2023/10/04 11:05:22;;;;;;;4.87;2.07;;;;;;;20.30;65.15;101613.06;5049909;28;20422;-57
2023/10/04 11:07:49;;;;;;;6.33;1.93;;;;;;;20.31;64.32;101620.47;5051352;28;20194;-58
2023/10/04 11:10:19;;;;;;;3.83;1.70;;;;;;;20.32;64.71;101621.31;5053812;28;20176;-57
2023/10/04 11:12:46;;;;;;;4.10;1.70;;;;;;;20.33;64.22;101611.50;5049944;28;20453;-58
2023/10/04 11:15:11;;;;;;;3.40;1.47;;;;;;;20.33;64.33;101614.38;5050273;28;20450;-57
2023/10/04 11:17:37;;;;;;;5.40;1.70;;;;;;;20.33;64.78;101606.63;5050102;28;20472;-58
2023/10/04 11:20:10;;;;;;;3.63;1.70;;;;;;;20.32;64.44;101604.94;5059298;28;20250;-58
2023/10/04 11:22:37;;;;;;;6.37;1.73;;;;;;;20.33;64.17;101600.88;5061753;28;20895;-58
2023/10/04 11:25:05;;;;;;;4.30;2.00;;;;;;;20.33;63.83;101600.88;5069832;28;20420;-58
2023/10/04 11:27:31;;;;;;;6.10;2.03;;;;;;;20.32;63.61;101599.19;5068793;28;20433;-58